createdAt,value
2023-05-12T00:00:14.421Z,3.05
2023-05-12T00:02:40.615Z,3.03
2023-05-12T00:05:07.871Z,3.00
2023-05-12T00:07:34.124Z,2.80
2023-05-12T00:10:00.644Z,2.83
2023-05-12T00:12:27.046Z,2.75
2023-05-12T00:14:53.324Z,2.65
2023-05-12T00:17:19.628Z,2.60
2023-05-12T00:19:46.265Z,2.58
2023-05-12T00:22:12.510Z,2.83
2023-05-12T00:24:39.243Z,3.10
2023-05-12T00:27:06.712Z,3.00
2023-05-12T00:29:33.656Z,3.05
2023-05-12T00:31:59.911Z,3.20
2023-05-12T00:34:27.097Z,3.05
2023-05-12T00:36:53.281Z,3.30
2023-05-12T00:39:19.469Z,3.10
2023-05-12T00:41:47.236Z,3.15
2023-05-12T00:44:13.428Z,3.37
2023-05-12T00:46:39.625Z,3.42
2023-05-12T00:49:05.745Z,3.47
2023-05-12T00:51:31.926Z,3.62
2023-05-12T00:53:58.218Z,3.45
2023-05-12T00:56:24.478Z,3.17
2023-05-12T00:58:50.607Z,3.50
2023-05-12T01:01:16.842Z,3.62
2023-05-12T01:03:43.630Z,3.47
2023-05-12T01:06:36.394Z,3.00
2023-05-12T01:09:02.979Z,2.60
2023-05-12T01:11:29.128Z,2.40
2023-05-12T01:13:55.297Z,2.40
2023-05-12T01:16:23.141Z,2.60
2023-05-12T01:18:50.471Z,2.40
2023-05-12T01:21:17.283Z,2.33
2023-05-12T01:23:45.956Z,2.30
2023-05-12T01:26:12.134Z,2.30
2023-05-12T01:28:38.314Z,2.40
2023-05-12T01:31:05.051Z,2.20
2023-05-12T01:33:32.024Z,2.40
2023-05-12T01:35:58.253Z,2.40
2023-05-12T01:38:24.504Z,2.10
2023-05-12T01:40:50.705Z,2.25
2023-05-12T01:43:16.809Z,2.20
2023-05-12T01:45:43.067Z,2.20
2023-05-12T01:48:09.253Z,2.10
2023-05-12T01:50:35.520Z,2.10
2023-05-12T01:53:01.681Z,2.10
2023-05-12T01:55:27.808Z,2.10
2023-05-12T01:57:53.974Z,2.10
2023-05-12T02:00:21.003Z,2.10
2023-05-12T02:02:47.987Z,2.00
2023-05-12T02:05:14.205Z,2.20
2023-05-12T02:07:40.335Z,2.10
2023-05-12T02:10:07.879Z,2.10
2023-05-12T02:12:34.036Z,2.30
2023-05-12T02:15:00.213Z,2.10
2023-05-12T02:17:28.025Z,2.20
2023-05-12T02:19:54.232Z,2.20
2023-05-12T02:22:20.348Z,2.20
2023-05-12T02:24:46.500Z,2.37
2023-05-12T02:27:12.980Z,2.30
2023-05-12T02:29:39.151Z,2.20
2023-05-12T02:32:05.562Z,2.10
2023-05-12T02:34:31.908Z,2.15
2023-05-12T02:36:58.075Z,2.30
2023-05-12T02:39:24.225Z,2.30
2023-05-12T02:41:50.445Z,2.20
2023-05-12T02:44:17.274Z,2.33
2023-05-12T02:46:43.499Z,2.30
2023-05-12T02:49:09.640Z,2.30
2023-05-12T02:51:35.853Z,2.30
2023-05-12T02:54:02.002Z,2.30
2023-05-12T02:56:28.742Z,2.42
2023-05-12T02:58:54.919Z,2.37
2023-05-12T03:01:21.081Z,2.50
2023-05-12T03:03:47.423Z,2.30
2023-05-12T03:06:13.895Z,2.33
2023-05-12T03:08:40.198Z,2.30
2023-05-12T03:11:06.320Z,2.47
2023-05-12T03:13:32.858Z,2.50
2023-05-12T03:16:00.648Z,2.30
2023-05-12T03:18:28.198Z,2.33
2023-05-12T03:20:54.431Z,2.40
2023-05-12T03:23:20.629Z,2.40
2023-05-12T03:25:46.840Z,2.50
2023-05-12T03:28:12.962Z,2.42
2023-05-12T03:30:39.098Z,2.40
2023-05-12T03:33:05.336Z,2.50
2023-05-12T03:35:31.511Z,2.65
2023-05-12T03:37:57.644Z,2.60
2023-05-12T03:40:23.934Z,2.70
2023-05-12T03:42:50.079Z,2.60
2023-05-12T03:45:16.598Z,2.67
2023-05-12T03:47:42.950Z,2.50
2023-05-12T03:50:10.310Z,2.40
2023-05-12T03:52:37.708Z,2.40
2023-05-12T03:55:06.128Z,2.50
2023-05-12T03:57:33.654Z,2.70
2023-05-12T04:00:00.003Z,2.80
2023-05-12T04:02:26.340Z,2.75
2023-05-12T04:04:52.798Z,2.67
2023-05-12T04:07:18.966Z,2.70
2023-05-12T04:09:45.167Z,2.78
2023-05-12T04:12:11.532Z,2.58
2023-05-12T04:14:42.775Z,2.60
2023-05-12T04:17:10.199Z,2.58
2023-05-12T04:19:36.480Z,2.72
2023-05-12T04:22:03.110Z,2.85
2023-05-12T04:24:30.675Z,2.90
2023-05-12T04:26:57.355Z,3.00
2023-05-12T04:29:23.640Z,2.97
2023-05-12T04:31:49.803Z,3.03
2023-05-12T04:34:16.111Z,3.10
2023-05-12T04:36:42.292Z,3.17
2023-05-12T04:39:08.930Z,3.03
2023-05-12T04:41:35.790Z,3.00
2023-05-12T04:44:01.978Z,3.10
2023-05-12T04:46:28.178Z,3.30
2023-05-12T04:48:54.461Z,3.03
2023-05-12T04:51:20.940Z,3.20
2023-05-12T04:53:47.208Z,3.20
2023-05-12T04:56:13.443Z,3.20
2023-05-12T04:58:39.640Z,2.70
2023-05-12T05:01:06.289Z,2.90
2023-05-12T05:03:32.849Z,2.67
2023-05-12T05:05:59.225Z,2.80
2023-05-12T05:08:25.386Z,2.75
2023-05-12T05:10:51.560Z,3.20
2023-05-12T05:13:17.683Z,3.12
2023-05-12T05:15:54.473Z,3.00
2023-05-12T05:18:23.874Z,3.15
2023-05-12T05:20:57.169Z,6.82
2023-05-12T05:23:25.119Z,3.47
2023-05-12T05:25:51.350Z,4.20
2023-05-12T05:28:17.512Z,4.47
2023-05-12T05:30:43.801Z,4.47
2023-05-12T05:33:12.347Z,4.30
2023-05-12T05:35:38.518Z,4.50
2023-05-12T05:38:04.663Z,3.40
2023-05-12T05:40:38.573Z,3.50
2023-05-12T05:43:11.471Z,3.10
2023-05-12T05:45:37.645Z,3.10
2023-05-12T05:48:04.114Z,3.20
2023-05-12T05:50:30.729Z,3.15
2023-05-12T05:52:56.959Z,3.65
2023-05-12T05:55:23.323Z,4.30
2023-05-12T05:57:49.514Z,4.93
2023-05-12T06:00:16.003Z,5.53
2023-05-12T06:02:42.809Z,5.32
2023-05-12T06:05:09.351Z,4.40
2023-05-12T06:07:35.505Z,3.87
2023-05-12T06:10:01.773Z,5.30
2023-05-12T06:12:27.990Z,4.50
2023-05-12T06:14:54.216Z,5.37
2023-05-12T06:17:20.457Z,7.20
2023-05-12T06:19:49.028Z,9.15
2023-05-12T06:22:15.265Z,11.55
2023-05-12T06:24:41.619Z,18.52
2023-05-12T06:27:07.970Z,17.65
2023-05-12T06:29:34.142Z,16.73
2023-05-12T06:32:00.376Z,13.00
2023-05-12T06:34:26.915Z,11.27
2023-05-12T06:36:54.987Z,13.62
2023-05-12T06:39:21.445Z,14.23
2023-05-12T06:41:47.621Z,11.50
2023-05-12T06:44:14.084Z,9.43
2023-05-12T06:46:40.427Z,8.18
2023-05-12T06:49:06.659Z,9.73
2023-05-12T06:51:33.381Z,11.12
2023-05-12T06:54:00.553Z,4.40
2023-05-12T06:56:28.536Z,2.70
2023-05-12T06:59:00.236Z,2.60
2023-05-12T07:01:27.506Z,2.50
2023-05-12T07:03:54.123Z,2.30
2023-05-12T07:06:21.110Z,2.65
2023-05-12T07:08:47.846Z,3.00
2023-05-12T07:11:19.282Z,4.72
2023-05-12T07:13:48.892Z,5.55
2023-05-12T07:16:16.315Z,5.10
2023-05-12T07:18:42.749Z,4.18
2023-05-12T07:21:09.352Z,4.20
2023-05-12T07:23:36.346Z,4.18
2023-05-12T07:26:03.405Z,3.75
2023-05-12T07:28:31.767Z,5.30
2023-05-12T07:30:59.048Z,5.37
2023-05-12T07:33:25.503Z,6.10
2023-05-12T07:35:51.784Z,4.03
2023-05-12T07:38:18.004Z,5.85
2023-05-12T07:40:44.582Z,4.93
2023-05-12T07:43:11.317Z,5.95
2023-05-12T07:45:37.635Z,5.00
2023-05-12T07:48:03.998Z,5.07
2023-05-12T07:50:30.376Z,3.60
2023-05-12T07:52:56.729Z,3.95
2023-05-12T07:55:23.188Z,4.18
2023-05-12T07:57:49.974Z,4.15
2023-05-12T08:00:17.530Z,3.58
2023-05-12T08:02:44.067Z,4.10
2023-05-12T08:05:10.701Z,4.55
2023-05-12T08:07:37.564Z,4.10
2023-05-12T08:10:06.956Z,4.10
2023-05-12T08:12:33.489Z,5.45
2023-05-12T08:14:59.817Z,3.45
2023-05-12T08:17:29.054Z,2.78
2023-05-12T08:19:55.885Z,2.95
2023-05-12T08:22:22.185Z,3.28
2023-05-12T08:24:48.739Z,3.40
2023-05-12T08:27:15.023Z,4.53
2023-05-12T08:29:41.209Z,3.37
2023-05-12T08:32:07.490Z,3.90
2023-05-12T08:34:33.742Z,4.25
2023-05-12T08:37:00.500Z,3.97
2023-05-12T08:39:30.275Z,4.20
2023-05-12T08:44:35.290Z,4.12
2023-05-12T08:47:01.585Z,3.97
2023-05-12T08:49:29.204Z,4.50
2023-05-12T08:51:58.110Z,4.50
2023-05-12T08:54:26.248Z,4.53
2023-05-12T08:59:22.040Z,4.65
2023-05-12T09:01:48.450Z,4.28
2023-05-12T09:04:17.598Z,4.22
2023-05-12T09:06:44.039Z,4.57
2023-05-12T09:09:11.189Z,5.05
2023-05-12T09:11:37.322Z,9.93
2023-05-12T09:14:18.155Z,11.48
2023-05-12T09:16:48.117Z,8.88
2023-05-12T09:19:21.496Z,7.07
2023-05-12T09:21:47.974Z,7.57
2023-05-12T09:24:14.211Z,6.12
2023-05-12T09:26:52.887Z,3.60
2023-05-12T09:29:30.577Z,3.85
2023-05-12T09:31:58.719Z,4.35
2023-05-12T09:34:43.173Z,4.10
2023-05-12T09:37:09.489Z,4.28
2023-05-12T09:39:36.484Z,3.65
2023-05-12T09:42:02.805Z,3.90
2023-05-12T09:44:29.124Z,3.62
2023-05-12T09:46:55.360Z,3.40
2023-05-12T09:49:24.896Z,3.40
2023-05-12T09:52:00.356Z,3.70
2023-05-12T09:54:30.395Z,2.90
2023-05-12T09:57:03.838Z,3.28
2023-05-12T09:59:35.372Z,3.03
2023-05-12T10:02:03.979Z,2.97
2023-05-12T10:04:38.828Z,3.20
2023-05-12T10:07:07.502Z,3.10
2023-05-12T10:09:34.069Z,3.00
2023-05-12T10:12:00.406Z,2.80
2023-05-12T10:14:27.108Z,3.10
2023-05-12T10:16:53.727Z,2.80
2023-05-12T10:19:20.188Z,2.85
2023-05-12T10:21:46.486Z,3.10
2023-05-12T10:24:14.169Z,3.10
2023-05-12T10:26:41.427Z,3.45
2023-05-12T10:29:07.739Z,3.80
2023-05-12T10:31:35.577Z,3.30
2023-05-12T10:34:02.696Z,3.60
2023-05-12T10:36:29.296Z,3.60
2023-05-12T10:38:56.240Z,3.50
2023-05-12T10:41:30.382Z,3.70
2023-05-12T10:43:56.783Z,3.60
2023-05-12T10:46:23.756Z,3.20
2023-05-12T10:48:55.726Z,3.00
2023-05-12T10:51:24.336Z,3.00
2023-05-12T10:54:06.189Z,3.42
2023-05-12T10:56:43.282Z,3.80
2023-05-12T10:59:28.842Z,4.20
2023-05-12T11:04:52.898Z,3.60
2023-05-12T11:07:39.732Z,7.25
2023-05-12T11:10:08.013Z,3.62
2023-05-12T11:12:35.514Z,7.18
2023-05-12T11:15:03.253Z,5.50
2023-05-12T11:17:30.066Z,9.07
2023-05-12T11:19:56.359Z,4.68
2023-05-12T11:22:22.996Z,4.47
2023-05-12T11:24:49.971Z,5.40
2023-05-12T11:27:17.388Z,5.53
2023-05-12T11:29:44.409Z,5.78
2023-05-12T11:32:11.943Z,4.80
2023-05-12T11:34:38.251Z,4.25
2023-05-12T11:37:06.042Z,4.82
2023-05-12T11:39:32.275Z,4.72
2023-05-12T11:42:13.065Z,4.25
2023-05-12T11:44:49.782Z,4.30
2023-05-12T11:47:16.277Z,5.12
2023-05-12T11:49:53.887Z,4.82
2023-05-12T11:52:21.633Z,3.90
2023-05-12T11:54:51.715Z,3.00
2023-05-12T11:57:35.323Z,2.87
2023-05-12T12:00:06.981Z,2.60
2023-05-12T12:02:35.289Z,2.50
2023-05-12T12:05:02.452Z,3.22
2023-05-12T12:07:32.990Z,3.37
2023-05-12T12:10:10.963Z,3.53
2023-05-12T12:12:37.276Z,3.78
2023-05-12T12:15:05.537Z,3.67
2023-05-12T12:17:31.881Z,3.70
2023-05-12T12:19:58.452Z,4.18
2023-05-12T12:22:24.962Z,4.22
2023-05-12T12:24:51.122Z,4.25
2023-05-12T12:27:17.438Z,4.47
2023-05-12T12:29:43.608Z,3.83
2023-05-12T12:32:09.965Z,3.40
2023-05-12T12:34:36.256Z,3.80
2023-05-12T12:37:02.591Z,3.97
2023-05-12T12:39:28.913Z,4.28
2023-05-12T12:41:55.422Z,3.92
2023-05-12T12:44:21.901Z,3.75
2023-05-12T12:46:48.733Z,3.45
2023-05-12T12:49:15.056Z,3.58
2023-05-12T12:51:46.208Z,3.30
2023-05-12T12:54:14.545Z,3.22
2023-05-12T12:56:41.109Z,3.10
2023-05-12T12:59:07.404Z,3.20
2023-05-12T13:01:33.657Z,2.50
2023-05-12T13:04:00.382Z,2.75
2023-05-12T13:06:27.004Z,2.60
2023-05-12T13:08:53.136Z,2.80
2023-05-12T13:11:19.282Z,2.85
2023-05-12T13:13:45.944Z,3.42
2023-05-12T13:16:12.644Z,3.90
2023-05-12T13:18:39.076Z,4.10
2023-05-12T13:21:05.629Z,4.82
2023-05-12T13:23:31.848Z,4.90
2023-05-12T13:25:58.478Z,4.50
2023-05-12T13:28:24.728Z,4.20
2023-05-12T13:30:54.102Z,4.75
2023-05-12T13:33:21.061Z,4.20
2023-05-12T13:35:47.337Z,4.35
2023-05-12T13:38:14.203Z,3.40
2023-05-12T13:40:40.832Z,2.90
2023-05-12T13:43:08.000Z,3.17
2023-05-12T13:45:34.760Z,3.10
2023-05-12T13:48:01.001Z,2.80
2023-05-12T13:50:27.146Z,3.00
2023-05-12T13:52:53.452Z,2.45
2023-05-12T13:55:21.641Z,2.90
2023-05-12T13:57:48.493Z,2.83
2023-05-12T14:00:16.730Z,2.95
2023-05-12T14:02:43.014Z,2.97
2023-05-12T14:05:09.496Z,2.95
2023-05-12T14:07:36.212Z,3.37
2023-05-12T14:10:02.582Z,2.80
2023-05-12T14:12:28.952Z,3.10
2023-05-12T14:15:01.965Z,3.08
2023-05-12T14:17:34.536Z,2.92
2023-05-12T14:20:01.148Z,2.85
2023-05-12T14:22:27.559Z,2.60
2023-05-12T14:24:54.984Z,2.40
2023-05-12T14:27:21.680Z,2.60
2023-05-12T14:29:47.840Z,3.00
2023-05-12T14:32:14.079Z,3.67
2023-05-12T14:34:40.291Z,3.97
2023-05-12T14:37:06.788Z,3.40
2023-05-12T14:39:33.409Z,2.90
2023-05-12T14:41:59.794Z,2.85
2023-05-12T14:44:26.494Z,3.20
2023-05-12T14:46:52.749Z,2.60
2023-05-12T14:49:21.114Z,2.40
2023-05-12T14:51:48.149Z,2.50
2023-05-12T14:54:24.751Z,2.70
2023-05-12T14:56:52.060Z,3.03
2023-05-12T14:59:18.261Z,2.90
2023-05-12T15:01:44.649Z,2.90
2023-05-12T15:04:11.173Z,2.62
2023-05-12T15:06:37.424Z,2.60
2023-05-12T15:09:03.890Z,2.55
2023-05-12T15:11:30.115Z,2.33
2023-05-12T15:13:56.343Z,2.60
2023-05-12T15:16:25.411Z,2.60
2023-05-12T15:18:51.778Z,2.60
2023-05-12T15:21:18.192Z,2.60
2023-05-12T15:23:44.574Z,2.70
2023-05-12T15:26:27.091Z,2.50
2023-05-12T15:28:57.900Z,2.80
2023-05-12T15:31:24.399Z,2.70
2023-05-12T15:33:50.976Z,3.10
2023-05-12T15:36:17.367Z,3.55
2023-05-12T15:38:46.363Z,3.60
2023-05-12T15:41:12.910Z,3.65
2023-05-12T15:43:40.336Z,3.92
2023-05-12T15:46:07.011Z,3.55
2023-05-12T15:48:33.283Z,3.60
2023-05-12T15:51:02.319Z,3.60
2023-05-12T15:53:28.544Z,3.35
2023-05-12T15:56:04.043Z,3.50
2023-05-12T15:58:30.873Z,3.60
2023-05-12T16:00:57.306Z,3.65
2023-05-12T16:03:24.091Z,3.62
2023-05-12T16:05:50.773Z,4.43
2023-05-12T16:08:17.023Z,4.37
2023-05-12T16:10:43.219Z,4.75
2023-05-12T16:13:09.380Z,4.22
2023-05-12T16:15:35.799Z,3.58
2023-05-12T16:18:02.439Z,3.55
2023-05-12T16:20:29.328Z,3.40
2023-05-12T16:22:55.551Z,3.30
2023-05-12T16:25:22.206Z,3.20
2023-05-12T16:27:48.724Z,3.20
2023-05-12T16:30:16.647Z,3.20
2023-05-12T16:32:45.231Z,3.20
2023-05-12T16:35:11.437Z,4.12
2023-05-12T16:37:38.000Z,4.00
2023-05-12T16:40:05.408Z,3.90
2023-05-12T16:42:31.659Z,3.58
2023-05-12T16:44:57.952Z,3.83
2023-05-12T16:47:24.386Z,3.30
2023-05-12T16:49:53.762Z,3.17
2023-05-12T16:52:20.161Z,3.08
2023-05-12T16:54:47.006Z,2.92
2023-05-12T16:57:13.280Z,2.80
2023-05-12T16:59:41.012Z,2.85
2023-05-12T17:02:09.264Z,2.80
2023-05-12T17:04:37.366Z,2.80
2023-05-12T17:07:05.277Z,2.80
2023-05-12T17:09:33.145Z,2.97
2023-05-12T17:12:00.022Z,3.10
2023-05-12T17:14:26.992Z,3.40
2023-05-12T17:16:53.632Z,3.40
2023-05-12T17:19:21.712Z,3.53
2023-05-12T17:21:48.435Z,3.30
2023-05-12T17:24:15.038Z,3.00
2023-05-12T17:26:41.513Z,3.28
2023-05-12T17:29:07.895Z,3.17
2023-05-12T17:31:34.297Z,3.55
2023-05-12T17:34:00.987Z,3.95
2023-05-12T17:36:28.858Z,3.65
2023-05-12T17:38:57.534Z,4.00
2023-05-12T17:41:24.846Z,3.70
2023-05-12T17:43:53.036Z,3.80
2023-05-12T17:46:20.104Z,3.33
2023-05-12T17:48:46.303Z,3.22
2023-05-12T17:51:12.784Z,3.60
2023-05-12T17:53:39.231Z,3.25
2023-05-12T17:56:05.727Z,3.30
2023-05-12T17:58:31.975Z,3.72
2023-05-12T18:00:58.442Z,3.62
2023-05-12T18:03:24.899Z,3.50
2023-05-12T18:05:52.812Z,5.07
2023-05-12T18:08:20.869Z,7.75
2023-05-12T18:10:47.145Z,9.70
2023-05-12T18:13:15.718Z,15.50
2023-05-12T18:15:42.504Z,7.22
2023-05-12T18:18:11.054Z,6.35
2023-05-12T18:20:37.388Z,9.77
2023-05-12T18:23:03.972Z,13.07
2023-05-12T18:25:30.667Z,7.18
2023-05-12T18:27:58.225Z,6.75
2023-05-12T18:30:25.211Z,6.03
2023-05-12T18:32:51.957Z,16.10
2023-05-12T18:35:20.216Z,4.72
2023-05-12T18:37:47.049Z,4.90
2023-05-12T18:40:13.830Z,4.70
2023-05-12T18:42:40.071Z,7.62
2023-05-12T18:45:07.837Z,4.80
2023-05-12T18:47:34.327Z,5.55
2023-05-12T18:50:05.488Z,27.90
2023-05-12T18:52:31.930Z,75.03
2023-05-12T18:54:58.169Z,48.87
2023-05-12T18:57:24.496Z,6.22
2023-05-12T18:59:50.884Z,7.32
2023-05-12T19:02:17.084Z,13.70
2023-05-12T19:04:43.463Z,8.10
2023-05-12T19:07:10.143Z,7.87
2023-05-12T19:09:36.830Z,9.85
2023-05-12T19:12:05.136Z,10.52
2023-05-12T19:14:31.330Z,12.13
2023-05-12T19:16:57.970Z,12.05
2023-05-12T19:19:24.244Z,7.65
2023-05-12T19:21:51.349Z,5.78
2023-05-12T19:24:17.684Z,5.93
2023-05-12T19:26:44.077Z,7.70
2023-05-12T19:29:11.567Z,9.02
2023-05-12T19:31:38.126Z,9.85
2023-05-12T19:34:04.608Z,10.10
2023-05-12T19:36:30.961Z,6.93
2023-05-12T19:38:59.679Z,4.90
2023-05-12T19:41:28.827Z,5.22
2023-05-12T19:43:55.885Z,6.07
2023-05-12T19:46:22.340Z,4.30
2023-05-12T19:48:49.362Z,4.20
2023-05-12T19:51:15.758Z,4.00
2023-05-12T19:53:43.194Z,3.95
2023-05-12T19:56:09.426Z,3.60
2023-05-12T19:58:35.705Z,3.62
2023-05-12T20:01:01.982Z,3.40
2023-05-12T20:03:28.153Z,3.20
2023-05-12T20:05:54.338Z,3.00
2023-05-12T20:08:22.756Z,2.87
2023-05-12T20:10:49.292Z,2.83
2023-05-12T20:13:15.516Z,3.05
2023-05-12T20:15:43.357Z,6.93
2023-05-12T20:18:12.666Z,16.02
2023-05-12T20:20:39.351Z,2.58
2023-05-12T20:23:05.810Z,2.60
2023-05-12T20:25:33.496Z,2.65
2023-05-12T20:27:59.746Z,2.40
2023-05-12T20:30:26.081Z,2.70
2023-05-12T20:32:52.401Z,2.30
2023-05-12T20:35:19.174Z,2.47
2023-05-12T20:37:46.223Z,2.30
2023-05-12T20:40:13.515Z,2.40
2023-05-12T20:42:40.108Z,2.58
2023-05-12T20:45:08.347Z,2.40
2023-05-12T20:47:36.462Z,2.30
2023-05-12T20:50:12.810Z,2.20
2023-05-12T20:52:39.980Z,2.30
2023-05-12T20:55:09.863Z,2.50
2023-05-12T20:57:42.130Z,2.40
2023-05-12T21:00:13.131Z,2.25
2023-05-12T21:02:43.309Z,2.50
2023-05-12T21:05:10.268Z,2.42
2023-05-12T21:07:36.491Z,2.30
2023-05-12T21:10:03.625Z,2.58
2023-05-12T21:12:33.732Z,2.50
2023-05-12T21:15:02.316Z,2.30
2023-05-12T21:20:56.814Z,2.40
2023-05-12T21:23:23.472Z,2.50
2023-05-12T21:25:52.809Z,2.40
2023-05-12T21:28:18.981Z,2.55
2023-05-12T21:30:45.653Z,2.53
2023-05-12T21:33:12.089Z,2.50
2023-05-12T21:35:38.675Z,2.42
2023-05-12T21:38:06.852Z,2.72
2023-05-12T21:40:33.378Z,2.95
2023-05-12T21:42:59.713Z,2.85
2023-05-12T21:45:26.089Z,3.20
2023-05-12T21:47:52.798Z,3.50
2023-05-12T21:50:21.419Z,3.40
2023-05-12T21:52:48.418Z,3.72
2023-05-12T21:55:15.402Z,4.30
2023-05-12T21:57:41.779Z,4.10
2023-05-12T22:00:10.274Z,4.18
2023-05-12T22:02:36.513Z,4.20
2023-05-12T22:05:04.046Z,3.83
2023-05-12T22:07:30.883Z,3.95
2023-05-12T22:09:57.441Z,4.10
2023-05-12T22:12:23.731Z,3.92
2023-05-12T22:14:50.208Z,3.78
2023-05-12T22:17:16.433Z,3.90
2023-05-12T22:19:43.387Z,3.80
2023-05-12T22:22:10.112Z,3.80
2023-05-12T22:24:36.287Z,3.42
2023-05-12T22:27:02.548Z,3.70
2023-05-12T22:29:28.799Z,3.70
2023-05-12T22:31:55.126Z,3.40
2023-05-12T22:34:21.368Z,3.40
2023-05-12T22:36:47.552Z,2.87
2023-05-12T22:39:14.004Z,3.12
2023-05-12T22:41:41.280Z,3.03
2023-05-12T22:44:08.166Z,3.15
2023-05-12T22:46:34.371Z,3.40
2023-05-12T22:49:00.915Z,3.37
2023-05-12T22:51:27.294Z,3.67
2023-05-12T22:53:53.452Z,3.55
2023-05-12T22:56:19.649Z,3.47
2023-05-12T22:58:46.082Z,3.78
2023-05-12T23:01:12.278Z,3.55
2023-05-12T23:03:38.998Z,3.42
2023-05-12T23:06:05.713Z,3.67
2023-05-12T23:08:31.991Z,3.83
2023-05-12T23:10:58.347Z,3.95
2023-05-12T23:13:24.549Z,3.97
2023-05-12T23:15:50.717Z,3.83
2023-05-12T23:18:16.849Z,3.90
2023-05-12T23:20:43.147Z,3.80
2023-05-12T23:23:09.539Z,3.70
2023-05-12T23:25:38.265Z,3.90
2023-05-12T23:28:05.836Z,3.70
2023-05-12T23:30:32.173Z,3.80
2023-05-12T23:32:58.679Z,3.80
2023-05-12T23:35:25.940Z,3.75
2023-05-12T23:37:52.145Z,3.78
2023-05-12T23:40:18.699Z,3.62
2023-05-12T23:42:45.087Z,3.35
2023-05-12T23:45:11.395Z,3.40
2023-05-12T23:47:37.902Z,3.30
2023-05-12T23:50:05.420Z,3.08
2023-05-12T23:52:31.616Z,3.12
2023-05-12T23:54:57.786Z,3.22
2023-05-12T23:57:23.973Z,3.05
2023-05-12T23:59:50.316Z,2.78
